createdAt,value
2019-04-11T00:00:33.901Z,94695.27
2019-04-11T00:03:05.054Z,94700.19
2019-04-11T00:05:35.147Z,94694.52
2019-04-11T00:08:05.959Z,94695.59
2019-04-11T00:10:37.398Z,94688.87
2019-04-11T00:13:17.372Z,94696.09
2019-04-11T00:15:39.052Z,94694.59
2019-04-11T00:18:10.227Z,94693.81
2019-04-11T00:20:40.379Z,94697.66
2019-04-11T00:23:10.305Z,94700.84
2019-04-11T00:25:40.284Z,94693.10
2019-04-11T00:28:10.289Z,94697.54
2019-04-11T00:30:40.277Z,94695.16
2019-04-11T00:33:10.534Z,94692.38
2019-04-11T00:35:40.380Z,94698.23
2019-04-11T00:38:10.318Z,94693.09
2019-04-11T00:40:41.547Z,94699.59
2019-04-11T00:43:11.599Z,94695.31
2019-04-11T00:45:41.506Z,94697.20
2019-04-11T00:48:11.577Z,94701.84
2019-04-11T00:50:41.534Z,94699.27
2019-04-11T00:53:11.910Z,94697.90
2019-04-11T00:55:41.957Z,94698.61
2019-04-11T00:58:11.947Z,94700.27
2019-04-11T01:00:42.996Z,94698.61
2019-04-11T01:03:13.811Z,94702.79
2019-04-11T01:05:43.873Z,94707.58
2019-04-11T01:08:13.993Z,94701.41
2019-04-11T01:10:43.909Z,94711.60
2019-04-11T01:13:14.287Z,94709.13
2019-04-11T01:15:52.964Z,94708.88
2019-04-11T01:18:22.808Z,94707.15
2019-04-11T01:20:53.687Z,94711.08
2019-04-11T01:23:23.798Z,94713.85
2019-04-11T01:25:54.993Z,94722.25
2019-04-11T01:28:24.962Z,94727.41
2019-04-11T01:31:05.223Z,94722.54
2019-04-11T01:33:35.919Z,94719.52
2019-04-11T01:36:06.936Z,94724.03
2019-04-11T01:38:42.197Z,94730.45
2019-04-11T01:41:12.223Z,94725.53
2019-04-11T01:43:52.586Z,94729.80
2019-04-11T01:46:14.093Z,94738.40
2019-04-11T01:48:55.605Z,94739.34
2019-04-11T01:51:25.722Z,94745.48
2019-04-11T01:53:55.718Z,94742.22
2019-04-11T01:56:27.357Z,94742.55
2019-04-11T01:58:57.414Z,94739.20
2019-04-11T02:01:32.620Z,94748.38
2019-04-11T02:04:14.424Z,94745.28
2019-04-11T02:06:44.471Z,94748.55
2019-04-11T02:09:15.879Z,94757.93
2019-04-11T02:11:45.892Z,94755.80
2019-04-11T02:14:19.254Z,94748.42
2019-04-11T02:16:49.606Z,94758.02
2019-04-11T02:19:20.418Z,94764.77
2019-04-11T02:21:52.283Z,94766.33
2019-04-11T02:24:42.022Z,94770.28
2019-04-11T02:27:24.800Z,94777.48
2019-04-11T02:29:55.990Z,94771.41
2019-04-11T02:32:28.654Z,94776.89
2019-04-11T02:34:59.315Z,94773.73
2019-04-11T02:37:31.764Z,94775.86
2019-04-11T02:40:03.236Z,94773.00
2019-04-11T02:42:35.107Z,94781.27
2019-04-11T02:45:19.878Z,94782.53
2019-04-11T02:47:40.022Z,94780.09
2019-04-11T02:50:12.418Z,94788.05
2019-04-11T02:52:42.283Z,94790.97
2019-04-11T02:55:14.451Z,94793.58
2019-04-11T02:57:45.945Z,94790.84
2019-04-11T03:00:18.023Z,94794.08
2019-04-11T03:02:50.258Z,94792.80
2019-04-11T03:05:20.818Z,94796.63
2019-04-11T03:07:51.850Z,94794.33
2019-04-11T03:10:21.839Z,94793.13
2019-04-11T03:12:52.679Z,94796.88
2019-04-11T03:15:37.544Z,94799.20
2019-04-11T03:17:59.571Z,94794.48
2019-04-11T03:20:34.434Z,94796.72
2019-04-11T03:23:04.502Z,94800.44
2019-04-11T03:25:31.154Z,94805.48
2019-04-11T03:28:02.176Z,94796.38
2019-04-11T03:30:49.437Z,94806.39
2019-04-11T03:38:31.687Z,94804.42
2019-04-11T03:40:57.018Z,94800.72
2019-04-11T03:43:27.708Z,94804.39
2019-04-11T03:46:06.698Z,94796.82
2019-04-11T03:48:33.296Z,94805.41
2019-04-11T03:50:52.479Z,94816.02
2019-04-11T03:53:26.477Z,94810.70
2019-04-11T03:55:53.908Z,94815.77
2019-04-11T03:58:25.789Z,94813.05
2019-04-11T04:00:59.308Z,94816.06
2019-04-11T04:03:29.500Z,94812.48
2019-04-11T04:06:01.876Z,94822.47
2019-04-11T04:08:34.125Z,94826.09
2019-04-11T04:11:25.344Z,94826.86
2019-04-11T04:14:08.171Z,94821.88
2019-04-11T04:16:48.661Z,94824.98
2019-04-11T04:19:32.549Z,94832.18
2019-04-11T04:22:07.380Z,94835.77
2019-04-11T04:24:41.337Z,94838.04
2019-04-11T04:27:10.283Z,94845.14
2019-04-11T04:29:43.951Z,94842.01
2019-04-11T04:32:14.474Z,94841.72
2019-04-11T04:34:46.416Z,94841.72
2019-04-11T04:37:21.413Z,94849.60
2019-04-11T04:40:03.379Z,94849.70
2019-04-11T04:42:31.057Z,94859.45
2019-04-11T04:44:55.820Z,94855.70
2019-04-11T04:47:37.273Z,94859.06
2019-04-11T04:49:59.350Z,94864.06
2019-04-11T04:52:30.376Z,94862.91
2019-04-11T04:55:02.149Z,94869.80
2019-04-11T04:57:33.934Z,94869.67
2019-04-11T05:00:06.865Z,94867.73
2019-04-11T05:02:37.349Z,94865.55
2019-04-11T05:05:09.497Z,94861.42
2019-04-11T05:07:42.356Z,94870.69
2019-04-11T05:10:13.302Z,94870.20
2019-04-11T05:12:43.904Z,94862.52
2019-04-11T05:15:14.543Z,94865.25
2019-04-11T05:17:46.116Z,94866.95
2019-04-11T05:20:17.614Z,94869.89
2019-04-11T05:22:47.588Z,94871.87
2019-04-11T05:25:18.229Z,94868.22
2019-04-11T05:27:48.295Z,94867.64
2019-04-11T05:30:18.777Z,94870.98
2019-04-11T05:32:49.347Z,94863.96
2019-04-11T05:35:19.230Z,94862.91
2019-04-11T05:37:49.139Z,94869.20
2019-04-11T05:40:19.053Z,94875.31
2019-04-11T05:42:53.464Z,94877.48
2019-04-11T05:45:24.409Z,94875.11
2019-04-11T05:47:55.544Z,94874.72
2019-04-11T05:50:34.048Z,94880.22
2019-04-11T05:53:05.546Z,94883.97
2019-04-11T05:55:41.431Z,94875.98
2019-04-11T05:58:13.766Z,94879.73
2019-04-11T06:01:01.238Z,94878.53
2019-04-11T06:03:32.345Z,94880.70
2019-04-11T06:06:21.398Z,94879.33
2019-04-11T06:08:54.212Z,94887.31
2019-04-11T06:11:29.178Z,94887.72
2019-04-11T06:14:20.900Z,94890.97
2019-04-11T06:16:55.697Z,94895.71
2019-04-11T06:19:43.782Z,94895.39
2019-04-11T06:22:14.882Z,94899.64
2019-04-11T06:25:06.019Z,94900.80
2019-04-11T06:27:55.708Z,94900.28
2019-04-11T06:31:04.584Z,94899.03
2019-04-11T06:33:42.781Z,94893.83
2019-04-11T06:36:41.270Z,94900.38
2019-04-11T06:39:29.469Z,94899.88
2019-04-11T06:42:17.381Z,94904.66
2019-04-11T06:44:59.651Z,94900.35
2019-04-11T06:47:49.230Z,94908.67
2019-04-11T06:50:25.099Z,94908.28
2019-04-11T06:52:56.218Z,94913.28
2019-04-11T06:55:49.630Z,94914.83
2019-04-11T06:58:23.535Z,94918.97
2019-04-11T07:00:58.574Z,94910.45
2019-04-11T07:03:32.478Z,94909.98
2019-04-11T07:06:09.171Z,94913.73
2019-04-11T07:08:49.048Z,94915.51
2019-04-11T07:11:21.527Z,94916.39
2019-04-11T07:14:01.913Z,94914.33
2019-04-11T07:16:31.960Z,94923.46
2019-04-11T07:19:23.908Z,94923.66
2019-04-11T07:21:54.124Z,94926.94
2019-04-11T07:25:01.967Z,94918.97
2019-04-11T07:27:32.293Z,94924.56
2019-04-11T07:30:22.751Z,94928.81
2019-04-11T07:32:56.266Z,94929.27
2019-04-11T07:35:59.717Z,94927.13
2019-04-11T07:38:37.030Z,94934.22
2019-04-11T07:41:27.395Z,94934.70
2019-04-11T07:43:58.343Z,94936.59
2019-04-11T07:46:43.947Z,94939.55
2019-04-11T07:49:15.648Z,94947.42
2019-04-11T07:51:56.142Z,94946.95
2019-04-11T07:54:27.970Z,94953.20
2019-04-11T07:57:20.174Z,94961.24
2019-04-11T08:00:17.971Z,94960.14
2019-04-11T08:03:10.018Z,94960.73
2019-04-11T08:05:50.837Z,94958.70
2019-04-11T08:08:39.030Z,94965.11
2019-04-11T08:11:27.461Z,94964.95
2019-04-11T08:14:22.722Z,94973.06
2019-04-11T08:17:12.370Z,94971.69
2019-04-11T08:19:59.906Z,94968.24
2019-04-11T08:22:35.050Z,94972.33
2019-04-11T08:25:25.098Z,94975.59
2019-04-11T08:28:06.113Z,94974.27
2019-04-11T08:30:51.996Z,94983.70
2019-04-11T08:33:22.485Z,94966.86
2019-04-11T08:36:24.104Z,94975.38
2019-04-11T08:38:54.116Z,94979.09
2019-04-11T08:41:49.630Z,94988.71
2019-04-11T08:44:23.821Z,94987.44
2019-04-11T08:46:58.115Z,94983.89
2019-04-11T08:49:41.753Z,94983.92
2019-04-11T08:52:18.014Z,94983.98
2019-04-11T08:55:10.389Z,94983.98
2019-04-11T08:57:42.951Z,94981.91
2019-04-11T09:00:42.745Z,94983.10
2019-04-11T09:04:04.131Z,94983.36
2019-04-11T09:06:30.732Z,94985.17
2019-04-11T09:09:38.107Z,94985.60
2019-04-11T09:12:11.995Z,94988.84
2019-04-11T09:15:00.263Z,94988.94
2019-04-11T09:17:34.458Z,94998.12
2019-04-11T09:20:29.949Z,94990.84
2019-04-11T09:23:01.795Z,94995.08
2019-04-11T09:25:51.670Z,94999.48
2019-04-11T09:28:41.710Z,94999.73
2019-04-11T09:31:43.991Z,95004.31
2019-04-11T09:34:30.337Z,95010.62
2019-04-11T09:37:12.365Z,95003.70
2019-04-11T09:40:03.796Z,95009.10
2019-04-11T09:42:59.634Z,95004.69
2019-04-11T09:45:48.738Z,95007.05
2019-04-11T09:48:44.148Z,95006.91
2019-04-11T09:51:40.289Z,95003.61
2019-04-11T09:54:48.463Z,95002.31
2019-04-11T09:57:52.857Z,95004.16
2019-04-11T10:00:41.062Z,95004.66
2019-04-11T10:03:17.542Z,95000.33
2019-04-11T10:05:56.716Z,95002.98
2019-04-11T10:08:35.260Z,95012.25
2019-04-11T10:11:24.133Z,95007.17
2019-04-11T10:14:17.642Z,95002.11
2019-04-11T10:17:06.536Z,95009.42
2019-04-11T10:19:46.462Z,95010.45
2019-04-11T10:22:34.142Z,95007.89
2019-04-11T10:25:19.124Z,95010.39
2019-04-11T10:28:07.088Z,95011.20
2019-04-11T10:31:12.491Z,95012.99
2019-04-11T10:34:19.649Z,95013.81
2019-04-11T10:37:05.320Z,95005.55
2019-04-11T10:39:54.541Z,94999.61
2019-04-11T10:42:26.630Z,95005.25
2019-04-11T10:45:18.588Z,95002.33
2019-04-11T10:47:49.717Z,95008.56
2019-04-11T10:50:36.263Z,94997.12
2019-04-11T10:53:06.851Z,95011.88
2019-04-11T10:56:08.461Z,95009.06
2019-04-11T10:58:59.753Z,95011.05
2019-04-11T11:01:48.490Z,95010.04
2019-04-11T11:04:25.585Z,95009.70
2019-04-11T11:06:58.648Z,95005.83
2019-04-11T11:09:56.867Z,95010.55
2019-04-11T11:12:45.485Z,95010.91
2019-04-11T11:15:27.576Z,95004.59
2019-04-11T11:18:53.909Z,95010.33
2019-04-11T11:21:02.601Z,95014.08
2019-04-11T11:23:50.759Z,95001.32
2019-04-11T11:26:33.778Z,95006.07
2019-04-11T11:29:41.178Z,95006.44
2019-04-11T11:32:29.501Z,95011.38
2019-04-11T11:35:15.187Z,95009.64
2019-04-11T11:37:57.453Z,95012.91
2019-04-11T11:40:45.257Z,95007.25
2019-04-11T11:43:35.043Z,95012.31
2019-04-11T11:46:26.723Z,95012.14
2019-04-11T11:49:02.395Z,95010.63
2019-04-11T11:51:37.501Z,95014.93
2019-04-11T11:54:13.741Z,95011.95
2019-04-11T11:56:44.472Z,95023.30
2019-04-11T12:17:10.809Z,95024.28
2019-04-11T12:19:52.910Z,95021.61
2019-04-11T12:22:18.092Z,95021.86
2019-04-11T12:24:52.478Z,95029.84
2019-04-11T12:27:41.453Z,95021.11
2019-04-11T12:30:31.292Z,95016.37
2019-04-11T12:33:23.511Z,95021.65
2019-04-11T12:36:08.243Z,95024.11
2019-04-11T12:38:57.091Z,95020.67
2019-04-11T12:41:35.581Z,95020.94
2019-04-11T12:44:30.756Z,95026.53
2019-04-11T12:47:38.605Z,95022.37
2019-04-11T12:50:28.941Z,95020.80
2019-04-11T12:53:10.742Z,95020.37
2019-04-11T12:55:58.398Z,95021.63
2019-04-11T12:58:31.147Z,95022.20
2019-04-11T13:01:32.338Z,95019.23
2019-04-11T13:04:23.515Z,95023.31
2019-04-11T13:07:18.820Z,95021.12
2019-04-11T13:09:53.863Z,95027.12
2019-04-11T13:12:39.163Z,95025.36
2019-04-11T13:15:20.716Z,95023.99
2019-04-11T13:18:01.294Z,95025.81
2019-04-11T13:20:56.190Z,95020.39
2019-04-11T13:23:45.042Z,95026.13
2019-04-11T13:26:39.803Z,95024.25
2019-04-11T13:29:24.330Z,95024.33
2019-04-11T13:32:12.185Z,95022.83
2019-04-11T13:34:43.166Z,95022.41
2019-04-11T13:37:32.093Z,95022.33
2019-04-11T13:40:33.230Z,95020.52
2019-04-11T13:43:20.841Z,95029.81
2019-04-11T13:46:08.964Z,95023.23
2019-04-11T13:48:57.493Z,95031.24
2019-04-11T13:51:55.568Z,95031.92
2019-04-11T13:54:53.631Z,95025.69
2019-04-11T13:57:57.993Z,95024.09
2019-04-11T14:00:46.523Z,95029.69
2019-04-11T14:03:47.849Z,95027.40
2019-04-11T14:06:20.901Z,95029.84
2019-04-11T14:08:59.347Z,95030.84
2019-04-11T14:11:33.746Z,95033.61
2019-04-11T14:14:13.019Z,95037.73
2019-04-11T14:16:52.647Z,95026.21
2019-04-11T14:19:56.701Z,95030.64
2019-04-11T14:22:31.120Z,95032.46
2019-04-11T14:25:18.756Z,95035.33
2019-04-11T14:27:50.400Z,95033.38
2019-04-11T14:30:35.757Z,95036.77
2019-04-11T14:33:06.845Z,95032.56
2019-04-11T14:35:58.912Z,95026.29
2019-04-11T14:38:32.037Z,95034.66
2019-04-11T14:41:41.505Z,95034.61
2019-04-11T14:44:09.528Z,95033.85
2019-04-11T14:46:50.302Z,95034.93
2019-04-11T14:49:20.425Z,95037.52
2019-04-11T14:52:16.995Z,95044.36
2019-04-11T14:54:49.204Z,95040.41
2019-04-11T14:57:55.762Z,95039.84
2019-04-11T15:00:44.069Z,95039.66
2019-04-11T15:03:33.005Z,95042.28
2019-04-11T15:06:20.437Z,95042.78
2019-04-11T15:09:07.916Z,95048.67
2019-04-11T15:11:49.632Z,95049.63
2019-04-11T15:14:37.165Z,95045.98
2019-04-11T15:17:12.801Z,95045.95
2019-04-11T15:19:45.898Z,95050.38
2019-04-11T15:22:35.716Z,95051.17
2019-04-11T15:25:12.562Z,95050.45
2019-04-11T15:28:00.173Z,95055.36
2019-04-11T15:30:30.936Z,95056.56
2019-04-11T15:33:35.511Z,95059.51
2019-04-11T15:36:07.515Z,95058.30
2019-04-11T15:39:06.729Z,95057.95
2019-04-11T15:41:38.394Z,95065.20
2019-04-11T15:44:27.154Z,95066.83
2019-04-11T15:47:00.709Z,95066.16
2019-04-11T15:49:48.301Z,95065.95
2019-04-11T15:52:21.235Z,95074.18
2019-04-11T15:55:08.850Z,95073.98
2019-04-11T15:57:45.872Z,95071.91
2019-04-11T16:00:44.449Z,95072.17
2019-04-11T16:03:24.603Z,95075.64
2019-04-11T16:06:12.825Z,95072.31
2019-04-11T16:08:47.880Z,95078.19
2019-04-11T16:11:42.817Z,95077.79
2019-04-11T16:14:29.676Z,95072.16
2019-04-11T16:17:16.894Z,95079.67
2019-04-11T16:19:51.642Z,95081.19
2019-04-11T16:22:39.374Z,95080.95
2019-04-11T16:25:11.735Z,95086.60
2019-04-11T16:28:07.901Z,95080.04
2019-04-11T16:30:40.513Z,95083.73
2019-04-11T16:33:17.315Z,95085.11
2019-04-11T16:35:57.255Z,95091.34
2019-04-11T16:38:28.904Z,95091.63
2019-04-11T16:41:16.437Z,95091.13
2019-04-11T16:43:49.422Z,95085.13
2019-04-11T16:46:37.079Z,95088.20
2019-04-11T16:49:06.986Z,95091.66
2019-04-11T16:51:36.837Z,95093.61
2019-04-11T16:54:09.544Z,95091.05
2019-04-11T16:56:38.361Z,95094.98
2019-04-11T16:59:08.290Z,95096.75
2019-04-11T17:01:38.226Z,95095.97
2019-04-11T17:04:08.842Z,95100.02
2019-04-11T17:06:57.682Z,95098.83
2019-04-11T17:09:46.609Z,95096.77
2019-04-11T17:12:16.541Z,95102.11
2019-04-11T17:14:46.538Z,95098.30
2019-04-11T17:17:16.492Z,95096.68
2019-04-11T17:19:46.362Z,95103.20
2019-04-11T17:22:16.777Z,95094.91
2019-04-11T17:24:49.855Z,95094.64
2019-04-11T17:27:23.176Z,95099.80
2019-04-11T17:29:55.383Z,95098.22
2019-04-11T17:32:25.962Z,95104.17
2019-04-11T17:34:56.384Z,95102.20
2019-04-11T17:37:27.262Z,95110.02
2019-04-11T17:39:57.185Z,95112.27
2019-04-11T17:42:27.046Z,95108.83
2019-04-11T17:44:58.116Z,95115.23
2019-04-11T17:47:27.984Z,95113.06
2019-04-11T17:49:59.576Z,95122.02
2019-04-11T17:52:29.748Z,95116.03
2019-04-11T17:55:00.696Z,95125.81
2019-04-11T17:57:31.405Z,95127.36
2019-04-11T18:00:01.389Z,95126.17
2019-04-11T18:02:32.586Z,95127.47
2019-04-11T18:05:02.653Z,95132.69
2019-04-11T18:07:32.572Z,95129.23
2019-04-11T18:10:02.484Z,95134.95
2019-04-11T18:12:32.502Z,95138.39
2019-04-11T18:15:02.973Z,95141.09
2019-04-11T18:17:35.007Z,95139.89
2019-04-11T18:20:06.880Z,95141.05
2019-04-11T18:22:37.363Z,95148.67
2019-04-11T18:25:07.756Z,95148.84
2019-04-11T18:27:37.795Z,95148.56
2019-04-11T18:30:10.997Z,95157.72
2019-04-11T18:32:41.380Z,95157.70
2019-04-11T18:35:11.381Z,95162.25
2019-04-11T18:37:41.410Z,95172.76
2019-04-11T18:40:11.727Z,95167.84
2019-04-11T18:42:41.669Z,95166.65
2019-04-11T18:45:12.096Z,95174.53
2019-04-11T18:47:42.116Z,95184.32
2019-04-11T18:50:12.612Z,95187.48
2019-04-11T18:52:42.598Z,95184.70
2019-04-11T18:55:13.130Z,95188.79
2019-04-11T18:57:43.894Z,95191.85
2019-04-11T19:00:16.208Z,95191.39
2019-04-11T19:02:46.511Z,95193.36
2019-04-11T19:05:28.249Z,95196.14
2019-04-11T19:07:49.105Z,95193.16
2019-04-11T19:10:19.113Z,95205.70
2019-04-11T19:12:49.101Z,95204.78
2019-04-11T19:15:19.398Z,95204.77
2019-04-11T19:17:49.416Z,95207.41
2019-04-11T19:20:19.785Z,95202.88
2019-04-11T19:22:49.890Z,95206.72
2019-04-11T19:25:19.798Z,95214.83
2019-04-11T19:27:53.302Z,95213.73
2019-04-11T19:30:21.613Z,95225.43
2019-04-11T19:32:53.333Z,95217.27
2019-04-11T19:35:23.259Z,95215.75
2019-04-11T19:37:53.122Z,95226.11
2019-04-11T19:40:23.127Z,95220.25
2019-04-11T19:42:53.067Z,95217.27
2019-04-11T19:45:23.113Z,95226.89
2019-04-11T19:47:53.123Z,95225.92
2019-04-11T19:50:24.172Z,95215.72
2019-04-11T19:52:53.999Z,95221.11
2019-04-11T19:55:42.844Z,95217.94
2019-04-11T19:58:12.892Z,95215.97
2019-04-11T20:00:42.891Z,95215.56
2019-04-11T20:03:12.820Z,95209.20
2019-04-11T20:05:42.733Z,95213.53
2019-04-11T20:08:12.694Z,95213.67
2019-04-11T20:10:42.600Z,95214.37
2019-04-11T20:13:12.608Z,95216.66
2019-04-11T20:15:43.143Z,95219.52
2019-04-11T20:18:13.099Z,95215.32
2019-04-11T20:20:43.011Z,95218.19
2019-04-11T20:23:12.902Z,95224.27
2019-04-11T20:25:45.734Z,95216.06
2019-04-11T20:28:14.400Z,95222.19
2019-04-11T20:30:44.837Z,95216.30
2019-04-11T20:33:26.371Z,95223.28
2019-04-11T20:35:46.401Z,95222.56
2019-04-11T20:38:16.782Z,95219.33
2019-04-11T20:40:46.691Z,95225.00
2019-04-11T20:43:16.685Z,95222.20
2019-04-11T20:45:46.657Z,95217.09
2019-04-11T20:48:16.561Z,95225.00
2019-04-11T20:50:46.517Z,95229.14
2019-04-11T20:53:16.570Z,95229.50
2019-04-11T20:55:47.672Z,95225.66
2019-04-11T20:58:27.118Z,95221.10
2019-04-11T21:00:55.424Z,95222.06
2019-04-11T21:03:22.113Z,95227.14
2019-04-11T21:05:52.066Z,95225.79
2019-04-11T21:08:21.917Z,95224.09
2019-04-11T21:10:52.012Z,95235.24
2019-04-11T21:13:21.946Z,95225.91
2019-04-11T21:15:51.932Z,95224.87
2019-04-11T21:18:25.637Z,95230.47
2019-04-11T21:20:55.870Z,95231.93
2019-04-11T21:23:29.484Z,95224.27
2019-04-11T21:25:59.104Z,95233.88
2019-04-11T21:28:30.309Z,95227.27
2019-04-11T21:31:00.987Z,95232.82
2019-04-11T21:33:34.266Z,95227.35
2019-04-11T21:36:02.942Z,95224.92
2019-04-11T21:38:32.895Z,95228.40
2019-04-11T21:41:05.870Z,95235.05
2019-04-11T21:43:36.278Z,95233.81
2019-04-11T21:46:07.602Z,95231.49
2019-04-11T21:48:37.578Z,95228.66
2019-04-11T21:51:11.067Z,95227.66
2019-04-11T21:53:39.138Z,95226.46
2019-04-11T21:56:09.133Z,95231.02
2019-04-11T21:58:39.248Z,95229.16
2019-04-11T22:01:12.540Z,95218.28
2019-04-11T22:03:45.413Z,95225.59
2019-04-11T22:06:15.422Z,95219.05
2019-04-11T22:08:45.798Z,95221.44
2019-04-11T22:11:15.744Z,95216.34
2019-04-11T22:13:45.889Z,95217.30
2019-04-11T22:16:17.087Z,95215.14
2019-04-11T22:18:47.099Z,95216.42
2019-04-11T22:21:19.204Z,95215.92
2019-04-11T22:23:49.310Z,95217.10
2019-04-11T22:26:19.115Z,95222.14
2019-04-11T22:28:48.952Z,95216.82
2019-04-11T22:31:18.922Z,95209.21
2019-04-11T22:34:00.194Z,95213.38
2019-04-11T22:36:30.771Z,95213.85
2019-04-11T22:39:01.582Z,95212.27
2019-04-11T22:41:33.312Z,95209.21
2019-04-11T22:44:03.152Z,95206.93
2019-04-11T22:46:33.211Z,95205.16
2019-04-11T22:49:03.207Z,95206.52
2019-04-11T22:51:33.148Z,95203.86
2019-04-11T22:54:03.149Z,95206.70
2019-04-11T22:56:33.058Z,95202.75
2019-04-11T22:59:03.001Z,95204.23
2019-04-11T23:01:35.892Z,95199.05
2019-04-11T23:04:06.153Z,95199.76
2019-04-11T23:06:36.076Z,95197.79
2019-04-11T23:09:07.764Z,95196.78
2019-04-11T23:11:38.640Z,95198.09
2019-04-11T23:14:08.592Z,95197.09
2019-04-11T23:16:38.622Z,95200.77
2019-04-11T23:19:08.536Z,95200.78
2019-04-11T23:21:38.541Z,95203.44
2019-04-11T23:24:12.031Z,95203.77
2019-04-11T23:26:40.254Z,95196.05
2019-04-11T23:29:10.101Z,95202.85
2019-04-11T23:31:39.947Z,95200.14
2019-04-11T23:34:09.858Z,95198.61
2019-04-11T23:36:39.734Z,95196.70
2019-04-11T23:39:09.615Z,95202.43
2019-04-11T23:41:39.617Z,95206.40
2019-04-11T23:44:09.581Z,95198.72
2019-04-11T23:46:39.487Z,95206.00
2019-04-11T23:49:09.407Z,95199.69
2019-04-11T23:51:39.402Z,95201.04
2019-04-11T23:54:09.370Z,95197.27
2019-04-11T23:56:39.212Z,95206.22
2019-04-11T23:59:09.350Z,95197.09
